createdAt,value
2019-04-05T00:01:54.406Z,89.60
2019-04-05T00:04:22.794Z,89.50
2019-04-05T00:06:51.306Z,89.00
2019-04-05T00:09:19.660Z,88.30
2019-04-05T00:11:48.190Z,87.90
2019-04-05T00:14:16.599Z,87.50
2019-04-05T00:16:46.121Z,87.10
2019-04-05T00:19:14.474Z,86.80
2019-04-05T00:21:42.877Z,86.30
2019-04-05T00:24:11.313Z,86.50
2019-04-05T00:26:39.742Z,87.70
2019-04-05T00:29:08.050Z,86.80
2019-04-05T00:31:36.448Z,86.60
2019-04-05T00:34:04.879Z,87.10
2019-04-05T00:36:33.405Z,87.50
2019-04-05T00:39:01.791Z,87.20
2019-04-05T00:41:32.906Z,88.10
2019-04-05T00:44:00.261Z,88.40
2019-04-05T00:46:28.558Z,88.40
2019-04-05T00:48:58.194Z,88.30
2019-04-05T00:51:26.588Z,87.70
2019-04-05T00:53:54.989Z,87.40
2019-04-05T00:56:24.136Z,87.60
2019-04-05T00:58:52.532Z,87.90
2019-04-05T01:01:20.962Z,87.80
2019-04-05T01:03:49.327Z,88.40
2019-04-05T01:06:17.685Z,87.80
2019-04-05T01:08:46.210Z,87.90
2019-04-05T01:11:14.669Z,88.70
2019-04-05T01:13:43.046Z,88.70
2019-04-05T01:16:11.504Z,89.50
2019-04-05T01:18:39.917Z,88.90
2019-04-05T01:21:08.305Z,89.50
2019-04-05T01:23:36.698Z,89.70
2019-04-05T01:26:05.135Z,89.70
2019-04-05T01:28:33.595Z,89.50
2019-04-05T01:31:01.985Z,89.60
2019-04-05T01:33:30.411Z,89.90
2019-04-05T01:35:58.943Z,89.40
2019-04-05T01:38:27.401Z,89.40
2019-04-05T01:40:56.294Z,90.20
2019-04-05T01:43:24.726Z,90.30
2019-04-05T01:45:54.263Z,90.30
2019-04-05T01:48:22.789Z,90.40
2019-04-05T01:50:51.121Z,90.20
2019-04-05T01:53:19.550Z,90.20
2019-04-05T01:55:47.944Z,90.20
2019-04-05T01:58:16.394Z,90.60
2019-04-05T02:00:44.858Z,90.90
2019-04-05T02:03:13.348Z,91.20
2019-04-05T02:05:42.150Z,90.90
2019-04-05T02:08:10.520Z,90.70
2019-04-05T02:10:38.999Z,90.90
2019-04-05T02:13:07.439Z,91.10
2019-04-05T02:15:35.909Z,91.00
2019-04-05T02:18:04.292Z,91.00
2019-04-05T02:20:32.848Z,90.90
2019-04-05T02:23:01.281Z,91.00
2019-04-05T02:25:29.729Z,91.00
2019-04-05T02:27:58.121Z,90.60
2019-04-05T02:30:26.414Z,90.60
2019-04-05T02:32:55.032Z,90.70
2019-04-05T02:35:23.426Z,91.00
2019-04-05T02:37:51.881Z,90.80
2019-04-05T02:40:20.869Z,91.30
2019-04-05T02:42:49.975Z,90.90
2019-04-05T02:45:18.465Z,90.70
2019-04-05T02:47:51.847Z,90.60
2019-04-05T02:50:20.297Z,90.60
2019-04-05T02:52:48.667Z,90.50
2019-04-05T02:55:17.974Z,90.50
2019-04-05T02:57:46.367Z,90.60
2019-04-05T03:00:14.755Z,90.90
2019-04-05T03:02:43.195Z,91.00
2019-04-05T03:05:11.609Z,91.60
2019-04-05T03:07:39.976Z,91.30
2019-04-05T03:10:08.441Z,91.70
2019-04-05T03:12:36.784Z,92.20
2019-04-05T03:15:06.990Z,92.20
2019-04-05T03:17:36.144Z,92.40
2019-04-05T03:20:05.665Z,92.50
2019-04-05T03:22:34.069Z,92.20
2019-04-05T03:25:02.421Z,92.30
2019-04-05T03:27:33.409Z,92.30
2019-04-05T03:30:02.225Z,92.30
2019-04-05T03:32:32.248Z,92.40
2019-04-05T03:35:00.622Z,92.40
2019-04-05T03:37:29.051Z,92.50
2019-04-05T03:39:58.173Z,92.60
2019-04-05T03:42:26.875Z,92.50
2019-04-05T03:44:55.285Z,92.40
2019-04-05T03:47:23.658Z,92.40
2019-04-05T03:49:52.114Z,92.20
2019-04-05T03:52:20.477Z,92.20
2019-04-05T03:54:48.861Z,92.00
2019-04-05T03:57:18.050Z,92.10
2019-04-05T03:59:46.535Z,92.20
2019-04-05T04:02:15.056Z,92.20
2019-04-05T04:04:43.468Z,92.50
2019-04-05T04:07:11.896Z,92.30
2019-04-05T04:09:40.288Z,92.50
2019-04-05T04:12:08.663Z,92.50
2019-04-05T04:14:37.055Z,92.60
2019-04-05T04:17:12.612Z,93.00
2019-04-05T04:19:35.618Z,92.70
2019-04-05T04:22:15.925Z,92.90
2019-04-05T04:24:45.011Z,92.80
2019-04-05T04:27:13.374Z,93.20
2019-04-05T04:29:41.763Z,93.20
2019-04-05T04:32:10.134Z,92.70
2019-04-05T04:34:38.462Z,93.30
2019-04-05T04:37:06.959Z,92.90
2019-04-05T04:39:35.341Z,93.30
2019-04-05T04:42:03.800Z,93.40
2019-04-05T04:44:32.220Z,93.20
2019-04-05T04:47:00.656Z,93.30
2019-04-05T04:49:29.053Z,93.20
2019-04-05T04:51:57.433Z,93.20
2019-04-05T04:54:25.933Z,93.20
2019-04-05T04:56:54.320Z,93.50
2019-04-05T04:59:22.790Z,93.30
2019-04-05T05:01:51.324Z,93.50
2019-04-05T05:04:20.107Z,93.20
2019-04-05T05:06:48.423Z,93.20
2019-04-05T05:09:16.887Z,93.10
2019-04-05T05:11:45.323Z,93.10
2019-04-05T05:14:13.749Z,92.90
2019-04-05T05:16:42.189Z,92.80
2019-04-05T05:19:10.746Z,92.70
2019-04-05T05:21:39.170Z,92.80
2019-04-05T05:24:07.550Z,92.80
2019-04-05T05:26:36.042Z,92.80
2019-04-05T05:29:04.449Z,92.70
2019-04-05T05:31:32.891Z,92.60
2019-04-05T05:34:01.335Z,92.40
2019-04-05T05:36:29.701Z,92.30
2019-04-05T05:38:58.090Z,92.10
2019-04-05T05:41:26.530Z,92.40
2019-04-05T05:43:54.995Z,91.90
2019-04-05T05:46:23.440Z,91.70
2019-04-05T05:48:51.803Z,91.50
2019-04-05T05:51:20.202Z,91.60
2019-04-05T05:53:48.588Z,91.60
2019-04-05T05:56:16.969Z,91.40
2019-04-05T05:58:45.346Z,91.30
2019-04-05T06:01:13.879Z,91.20
2019-04-05T06:03:42.316Z,91.10
2019-04-05T06:06:10.702Z,90.90
2019-04-05T06:08:39.169Z,91.00
2019-04-05T06:11:07.541Z,90.80
2019-04-05T06:13:35.929Z,90.90
2019-04-05T06:16:04.284Z,90.80
2019-04-05T06:18:33.155Z,90.70
2019-04-05T06:21:03.412Z,90.70
2019-04-05T06:23:33.982Z,90.50
2019-04-05T06:26:01.786Z,90.20
2019-04-05T06:28:30.366Z,89.90
2019-04-05T06:30:58.713Z,89.40
2019-04-05T06:33:31.806Z,89.80
2019-04-05T06:35:57.282Z,88.60
2019-04-05T06:38:25.800Z,88.50
2019-04-05T06:40:55.052Z,88.00
2019-04-05T06:43:23.485Z,87.60
2019-04-05T06:45:52.029Z,87.30
2019-04-05T06:48:20.455Z,87.30
2019-04-05T06:50:48.853Z,86.80
2019-04-05T06:53:17.271Z,86.90
2019-04-05T06:55:45.764Z,86.70
2019-04-05T06:58:19.834Z,86.00
2019-04-05T07:00:56.320Z,85.80
2019-04-05T07:03:15.014Z,85.40
2019-04-05T07:05:43.419Z,85.30
2019-04-05T07:08:11.904Z,84.80
2019-04-05T07:10:40.339Z,84.30
2019-04-05T07:13:08.962Z,84.20
2019-04-05T07:15:37.360Z,84.00
2019-04-05T07:18:05.776Z,83.60
2019-04-05T07:20:34.222Z,83.60
2019-04-05T07:23:02.627Z,83.30
2019-04-05T07:25:31.047Z,82.70
2019-04-05T07:27:59.528Z,81.80
2019-04-05T07:30:28.993Z,81.70
2019-04-05T07:32:57.464Z,81.40
2019-04-05T07:35:33.306Z,82.00
2019-04-05T07:37:55.948Z,81.20
2019-04-05T07:40:24.430Z,80.30
2019-04-05T07:42:53.199Z,79.50
2019-04-05T07:45:21.673Z,79.40
2019-04-05T07:47:50.130Z,78.60
2019-04-05T07:50:18.619Z,77.80
2019-04-05T07:52:47.045Z,76.60
2019-04-05T07:55:15.459Z,76.20
2019-04-05T07:57:43.899Z,76.00
2019-04-05T08:00:21.263Z,76.10
2019-04-05T08:02:49.691Z,74.60
2019-04-05T08:05:18.192Z,74.50
2019-04-05T08:07:46.701Z,73.50
2019-04-05T08:10:15.155Z,72.70
2019-04-05T08:12:43.568Z,72.50
2019-04-05T08:15:11.988Z,72.50
2019-04-05T08:17:40.396Z,71.50
2019-04-05T08:20:08.833Z,71.30
2019-04-05T08:22:37.301Z,70.20
2019-04-05T08:25:05.720Z,70.00
2019-04-05T08:27:35.060Z,69.10
2019-04-05T08:30:04.322Z,69.30
2019-04-05T08:32:32.717Z,68.80
2019-04-05T08:35:01.127Z,68.70
2019-04-05T08:37:29.539Z,68.10
2019-04-05T08:39:57.929Z,68.20
2019-04-05T08:42:26.293Z,68.40
2019-04-05T08:44:54.629Z,68.10
2019-04-05T08:47:22.922Z,67.80
2019-04-05T08:49:51.322Z,68.20
2019-04-05T08:52:19.732Z,67.80
2019-04-05T08:54:48.161Z,66.90
2019-04-05T08:57:16.485Z,66.00
2019-04-05T08:59:44.888Z,65.20
2019-04-05T09:02:13.251Z,65.60
2019-04-05T09:04:41.666Z,64.50
2019-04-05T09:07:10.102Z,61.90
2019-04-05T09:09:38.480Z,61.90
2019-04-05T09:12:06.971Z,62.00
2019-04-05T09:14:35.335Z,61.70
2019-04-05T09:17:03.726Z,60.60
2019-04-05T09:19:32.130Z,61.00
2019-04-05T09:22:00.654Z,59.10
2019-04-05T09:24:29.194Z,59.90
2019-04-05T09:26:57.599Z,59.90
2019-04-05T09:29:26.073Z,59.00
2019-04-05T09:31:54.450Z,59.90
2019-04-05T09:34:23.293Z,58.80
2019-04-05T09:36:51.675Z,58.80
2019-04-05T09:39:20.127Z,58.30
2019-04-05T09:41:48.428Z,58.20
2019-04-05T09:44:16.971Z,58.20
2019-04-05T09:46:49.480Z,57.80
2019-04-05T09:49:15.403Z,57.90
2019-04-05T09:51:43.795Z,57.40
2019-04-05T09:54:12.261Z,56.80
2019-04-05T09:56:42.029Z,56.30
2019-04-05T09:59:10.446Z,56.20
2019-04-05T10:01:38.938Z,56.70
2019-04-05T10:04:07.994Z,56.30
2019-04-05T10:06:36.554Z,55.50
2019-04-05T10:09:07.710Z,54.60
2019-04-05T10:11:36.170Z,54.20
2019-04-05T10:14:04.730Z,54.00
2019-04-05T10:16:33.133Z,53.30
2019-04-05T10:19:01.506Z,52.60
2019-04-05T10:21:29.919Z,52.20
2019-04-05T10:23:58.377Z,52.30
2019-04-05T10:26:26.822Z,51.50
2019-04-05T10:28:55.229Z,51.20
2019-04-05T10:31:23.601Z,50.80
2019-04-05T10:33:52.061Z,49.40
2019-04-05T10:36:20.468Z,49.90
2019-04-05T10:38:48.873Z,49.70
2019-04-05T10:41:17.271Z,49.10
2019-04-05T10:43:46.210Z,48.60
2019-04-05T10:46:14.727Z,46.70
2019-04-05T10:48:43.125Z,45.10
2019-04-05T10:51:11.497Z,44.20
2019-04-05T10:53:39.940Z,40.50
2019-04-05T10:56:08.329Z,39.30
2019-04-05T10:58:36.731Z,38.40
2019-04-05T11:01:05.095Z,37.70
2019-04-05T11:03:33.493Z,36.90
2019-04-05T11:06:02.094Z,37.50
2019-04-05T11:08:30.482Z,37.50
2019-04-05T11:10:58.862Z,37.30
2019-04-05T11:13:27.370Z,36.40
2019-04-05T11:15:57.068Z,35.70
2019-04-05T11:18:25.466Z,35.70
2019-04-05T11:20:53.806Z,34.80
2019-04-05T11:23:22.183Z,34.80
2019-04-05T11:25:51.665Z,33.70
2019-04-05T11:28:19.977Z,33.50
2019-04-05T11:30:48.864Z,33.70
2019-04-05T11:33:19.771Z,32.60
2019-04-05T11:35:47.398Z,32.10
2019-04-05T11:38:15.863Z,32.30
2019-04-05T11:40:44.718Z,31.60
2019-04-05T11:43:13.178Z,31.40
2019-04-05T11:45:41.896Z,29.70
2019-04-05T11:48:11.497Z,29.90
2019-04-05T11:50:39.843Z,29.60
2019-04-05T11:53:08.220Z,30.20
2019-04-05T11:55:36.631Z,30.00
2019-04-05T11:58:05.030Z,30.70
2019-04-05T12:00:50.083Z,32.20
2019-04-05T12:03:20.064Z,32.60
2019-04-05T12:05:48.558Z,34.50
2019-04-05T12:08:16.914Z,32.90
2019-04-05T12:10:45.304Z,34.00
2019-04-05T12:13:13.691Z,33.90
2019-04-05T12:15:42.102Z,34.10
2019-04-05T12:18:10.401Z,34.60
2019-04-05T12:20:49.189Z,34.50
2019-04-05T12:23:08.815Z,32.30
2019-04-05T12:25:37.225Z,32.70
2019-04-05T12:28:07.697Z,32.30
2019-04-05T12:30:35.709Z,32.20
2019-04-05T12:33:13.766Z,32.30
2019-04-05T12:35:37.365Z,31.20
2019-04-05T12:38:06.839Z,31.10
2019-04-05T12:40:34.765Z,31.00
2019-04-05T12:43:03.227Z,30.40
2019-04-05T12:45:31.684Z,30.00
2019-04-05T12:48:00.170Z,30.30
2019-04-05T12:50:28.568Z,30.70
2019-04-05T12:52:57.460Z,30.60
2019-04-05T12:55:29.128Z,30.60
2019-04-05T12:57:57.527Z,30.10
2019-04-05T13:00:26.464Z,31.00
2019-04-05T13:02:56.990Z,31.50
2019-04-05T13:05:25.095Z,31.40
2019-04-05T13:07:54.221Z,31.50
2019-04-05T13:10:25.151Z,30.50
2019-04-05T13:12:56.843Z,29.80
2019-04-05T13:15:22.689Z,29.10
2019-04-05T13:17:51.054Z,29.50
2019-04-05T13:20:19.457Z,28.40
2019-04-05T13:22:47.869Z,27.60
2019-04-05T13:25:16.246Z,27.50
2019-04-05T13:27:44.634Z,27.80
2019-04-05T13:30:13.116Z,27.40
2019-04-05T13:32:41.485Z,27.40
2019-04-05T13:35:09.879Z,26.20
2019-04-05T13:37:38.288Z,26.40
2019-04-05T13:40:07.600Z,26.30
2019-04-05T13:42:35.994Z,26.00
2019-04-05T13:45:06.868Z,25.20
2019-04-05T13:47:37.856Z,24.60
2019-04-05T13:50:05.909Z,24.80
2019-04-05T13:52:34.353Z,24.00
2019-04-05T13:55:02.667Z,24.20
2019-04-05T13:57:31.197Z,24.40
2019-04-05T13:59:59.669Z,25.40
2019-04-05T14:02:28.050Z,25.40
2019-04-05T14:04:56.434Z,25.30
2019-04-05T14:07:30.649Z,24.70
2019-04-05T14:09:59.221Z,24.70
2019-04-05T14:12:27.629Z,24.40
2019-04-05T14:14:57.011Z,23.10
2019-04-05T14:17:25.534Z,23.30
2019-04-05T14:19:53.962Z,23.20
2019-04-05T14:22:22.965Z,23.00
2019-04-05T14:24:52.490Z,23.00
2019-04-05T14:27:21.638Z,23.70
2019-04-05T14:29:50.187Z,24.10
2019-04-05T14:32:26.429Z,23.80
2019-04-05T14:34:53.998Z,23.90
2019-04-05T14:37:24.818Z,24.00
2019-04-05T14:39:51.450Z,24.10
2019-04-05T14:42:19.909Z,24.10
2019-04-05T14:44:48.280Z,24.70
2019-04-05T14:47:16.661Z,25.10
2019-04-05T14:49:45.064Z,24.80
2019-04-05T14:52:13.427Z,24.80
2019-04-05T14:54:43.265Z,25.10
2019-04-05T14:57:11.909Z,25.50
2019-04-05T14:59:41.023Z,25.80
2019-04-05T15:02:09.668Z,25.80
2019-04-05T15:04:38.051Z,26.20
2019-04-05T15:07:06.499Z,25.50
2019-04-05T15:09:34.945Z,26.00
2019-04-05T15:12:03.864Z,26.00
2019-04-05T15:14:32.329Z,26.20
2019-04-05T15:17:00.705Z,27.00
2019-04-05T15:19:29.086Z,26.90
2019-04-05T15:22:05.565Z,26.70
2019-04-05T15:24:27.529Z,26.70
2019-04-05T15:26:55.940Z,26.50
2019-04-05T15:29:26.120Z,26.40
2019-04-05T15:31:55.531Z,26.80
2019-04-05T15:34:27.972Z,27.10
2019-04-05T15:36:54.553Z,26.60
2019-04-05T15:39:22.960Z,26.80
2019-04-05T15:41:51.318Z,27.50
2019-04-05T15:44:19.618Z,27.70
2019-04-05T15:46:48.005Z,28.20
2019-04-05T15:49:16.309Z,28.50
2019-04-05T15:51:44.696Z,28.80
2019-04-05T15:54:13.091Z,28.90
2019-04-05T15:56:41.509Z,29.30
2019-04-05T15:59:09.988Z,29.10
2019-04-05T16:01:39.152Z,28.80
2019-04-05T16:04:07.593Z,28.90
2019-04-05T16:06:38.880Z,29.40
2019-04-05T16:09:07.806Z,29.90
2019-04-05T16:11:36.231Z,30.40
2019-04-05T16:14:04.637Z,30.50
2019-04-05T16:16:33.006Z,31.10
2019-04-05T16:19:01.399Z,31.10
2019-04-05T16:21:29.790Z,30.80
2019-04-05T16:23:58.198Z,31.30
2019-04-05T16:26:26.594Z,31.40
2019-04-05T16:28:55.127Z,32.00
2019-04-05T16:31:23.505Z,32.80
2019-04-05T16:33:51.952Z,33.20
2019-04-05T16:36:20.271Z,34.00
2019-04-05T16:38:48.671Z,35.10
2019-04-05T16:41:17.169Z,35.80
2019-04-05T16:43:45.551Z,37.10
2019-04-05T16:46:13.925Z,37.50
2019-04-05T16:48:42.304Z,39.20
2019-04-05T16:51:10.706Z,40.20
2019-04-05T16:53:40.719Z,41.50
2019-04-05T16:56:09.137Z,41.40
2019-04-05T16:58:37.507Z,42.10
2019-04-05T17:01:05.973Z,43.00
2019-04-05T17:03:34.406Z,43.80
2019-04-05T17:06:02.917Z,44.60
2019-04-05T17:08:31.417Z,45.00
2019-04-05T17:10:59.786Z,45.10
2019-04-05T17:13:28.206Z,45.30
2019-04-05T17:15:56.576Z,46.20
2019-04-05T17:18:24.980Z,46.80
2019-04-05T17:20:54.326Z,47.10
2019-04-05T17:23:22.720Z,48.10
2019-04-05T17:25:51.107Z,47.70
2019-04-05T17:28:19.525Z,48.20
2019-04-05T17:30:47.903Z,48.40
2019-04-05T17:33:16.361Z,48.90
2019-04-05T17:35:44.769Z,49.40
2019-04-05T17:38:14.053Z,49.70
2019-04-05T17:40:42.429Z,50.10
2019-04-05T17:43:10.823Z,50.30
2019-04-05T17:45:39.229Z,50.80
2019-04-05T17:48:07.628Z,51.10
2019-04-05T17:50:36.022Z,51.50
2019-04-05T17:53:11.972Z,51.80
2019-04-05T17:55:34.466Z,51.90
2019-04-05T17:58:05.501Z,52.20
2019-04-05T18:00:34.058Z,52.60
2019-04-05T18:03:02.615Z,52.90
2019-04-05T18:05:31.016Z,53.20
2019-04-05T18:07:59.508Z,53.70
2019-04-05T18:10:27.959Z,53.80
2019-04-05T18:12:56.623Z,54.10
2019-04-05T18:15:25.123Z,54.30
2019-04-05T18:17:53.516Z,54.50
2019-04-05T18:20:21.978Z,54.70
2019-04-05T18:22:50.463Z,54.90
2019-04-05T18:25:20.258Z,55.50
2019-04-05T18:27:48.663Z,55.50
2019-04-05T18:30:17.100Z,55.80
2019-04-05T18:32:45.423Z,55.90
2019-04-05T18:35:13.931Z,56.10
2019-04-05T18:37:42.336Z,56.20
2019-04-05T18:40:11.121Z,56.30
2019-04-05T18:42:39.514Z,56.60
2019-04-05T18:45:07.883Z,57.50
2019-04-05T18:47:36.296Z,57.10
2019-04-05T18:50:06.493Z,57.70
2019-04-05T18:52:34.966Z,57.50
2019-04-05T18:55:04.477Z,57.70
2019-04-05T18:57:32.897Z,57.80
2019-04-05T19:00:01.203Z,58.30
2019-04-05T19:02:29.569Z,58.50
2019-04-05T19:04:57.989Z,58.60
2019-04-05T19:07:26.435Z,58.70
2019-04-05T19:09:54.888Z,58.80
2019-04-05T19:12:23.281Z,59.00
2019-04-05T19:14:51.687Z,59.20
2019-04-05T19:17:24.181Z,59.40
2019-04-05T19:19:50.139Z,59.60
2019-04-05T19:22:18.523Z,59.80
2019-04-05T19:24:46.938Z,60.00
2019-04-05T19:27:15.356Z,60.40
2019-04-05T19:29:43.770Z,60.70
2019-04-05T19:49:45.259Z,63.70
2019-04-05T19:52:18.214Z,63.80
2019-04-05T19:54:46.677Z,64.40
2019-04-05T19:57:15.076Z,64.80
2019-04-05T19:59:43.469Z,65.20
2019-04-05T20:02:11.937Z,66.00
2019-04-05T20:04:40.313Z,66.40
2019-04-05T20:07:08.792Z,67.00
2019-04-05T20:09:38.090Z,67.30
2019-04-05T20:12:06.522Z,67.70
2019-04-05T20:14:34.970Z,68.00
2019-04-05T20:17:03.372Z,68.50
2019-04-05T20:19:31.819Z,68.40
2019-04-05T20:22:02.136Z,68.70
2019-04-05T20:24:30.298Z,69.10
2019-04-05T20:26:58.610Z,70.20
2019-04-05T20:29:26.982Z,69.70
2019-04-05T20:31:56.130Z,70.20
2019-04-05T20:34:24.508Z,70.70
2019-04-05T20:36:52.941Z,71.10
2019-04-05T20:39:21.297Z,71.30
2019-04-05T20:41:49.757Z,71.70
2019-04-05T20:44:18.156Z,72.10
2019-04-05T20:46:46.701Z,72.50
2019-04-05T20:49:15.483Z,72.80
2019-04-05T20:51:43.862Z,73.20
2019-04-05T20:54:12.343Z,74.00
2019-04-05T20:56:40.767Z,74.10
2019-04-05T20:59:09.217Z,74.30
2019-04-05T21:01:37.665Z,74.80
2019-04-05T21:04:06.057Z,75.30
2019-04-05T21:06:34.384Z,75.30
2019-04-05T21:09:04.466Z,75.70
2019-04-05T21:11:33.202Z,76.60
2019-04-05T21:14:01.686Z,76.40
2019-04-05T21:16:30.070Z,77.00
2019-04-05T21:18:58.527Z,77.20
2019-04-05T21:21:26.898Z,77.40
2019-04-05T21:23:55.262Z,77.70
2019-04-05T21:26:23.678Z,77.90
2019-04-05T21:28:52.031Z,78.30
2019-04-05T21:31:20.433Z,78.60
2019-04-05T21:33:48.829Z,78.60
2019-04-05T21:36:17.209Z,79.00
2019-04-05T21:38:45.663Z,79.30
2019-04-05T21:41:14.079Z,79.70
2019-04-05T21:43:42.577Z,80.40
2019-04-05T21:46:10.975Z,80.60
2019-04-05T21:48:39.518Z,80.70
2019-04-05T21:51:07.877Z,80.70
2019-04-05T21:53:36.249Z,80.90
2019-04-05T21:56:04.636Z,81.50
2019-04-05T21:58:32.998Z,81.90
2019-04-05T22:01:02.992Z,82.10
2019-04-05T22:03:31.381Z,82.50
2019-04-05T22:05:59.730Z,82.70
2019-04-05T22:08:29.110Z,82.90
2019-04-05T22:10:57.569Z,83.00
2019-04-05T22:13:25.940Z,83.20
2019-04-05T22:15:54.314Z,83.40
2019-04-05T22:18:22.628Z,83.40
2019-04-05T22:20:50.999Z,83.50
2019-04-05T22:23:19.465Z,83.60
2019-04-05T22:25:47.793Z,83.70
2019-04-05T22:28:16.178Z,83.60
2019-04-05T22:30:44.691Z,84.10
2019-04-05T22:33:13.019Z,84.50
2019-04-05T22:35:41.390Z,84.90
2019-04-05T22:38:09.787Z,85.50
2019-04-05T22:40:38.229Z,85.60
2019-04-05T22:43:06.604Z,85.90
2019-04-05T22:45:34.971Z,86.20
2019-04-05T22:48:04.162Z,85.80
2019-04-05T22:50:32.627Z,86.70
2019-04-05T22:53:01.034Z,86.40
2019-04-05T22:55:29.477Z,87.30
2019-04-05T22:57:57.850Z,87.60
2019-04-05T23:00:26.253Z,88.00
2019-04-05T23:02:54.656Z,87.70
2019-04-05T23:05:23.024Z,87.30
2019-04-05T23:07:51.486Z,87.60
2019-04-05T23:10:19.866Z,87.90
2019-04-05T23:12:48.246Z,88.90
2019-04-05T23:15:16.624Z,88.80
2019-04-05T23:17:44.925Z,89.00
2019-04-05T23:20:13.309Z,90.10
2019-04-05T23:22:41.673Z,90.10
2019-04-05T23:25:21.038Z,90.50
2019-04-05T23:27:40.189Z,90.40
2019-04-05T23:30:09.141Z,90.60
2019-04-05T23:32:37.575Z,90.40
2019-04-05T23:35:06.721Z,90.40
2019-04-05T23:37:35.157Z,90.80
2019-04-05T23:40:04.311Z,91.20
2019-04-05T23:42:32.704Z,91.00
2019-04-05T23:45:02.061Z,91.40
2019-04-05T23:47:30.435Z,91.40
2019-04-05T23:49:58.818Z,91.40
2019-04-05T23:52:27.138Z,91.70
2019-04-05T23:54:55.454Z,91.70
2019-04-05T23:57:23.779Z,91.50
2019-04-05T23:59:52.178Z,92.10
